sensor_id;sensor_type;location;lat;lon;timestamp;P1;durP1;ratioP1;P2;durP2;ratioP2
14348;SDS011;7258;50.376;8.742;2022-12-24T00:00:21;11.37;;;2.80;;
14348;SDS011;7258;50.376;8.742;2022-12-24T00:02:24;10.02;;;3.00;;
14348;SDS011;7258;50.376;8.742;2022-12-24T00:04:30;8.83;;;2.70;;
14348;SDS011;7258;50.376;8.742;2022-12-24T00:06:32;7.40;;;2.53;;
14348;SDS011;7258;50.376;8.742;2022-12-24T00:08:35;7.33;;;2.40;;
14348;SDS011;7258;50.376;8.742;2022-12-24T00:10:38;8.13;;;2.40;;
14348;SDS011;7258;50.376;8.742;2022-12-24T00:12:41;9.63;;;2.83;;
14348;SDS011;7258;50.376;8.742;2022-12-24T00:14:43;7.70;;;2.50;;
14348;SDS011;7258;50.376;8.742;2022-12-24T00:16:46;7.33;;;2.60;;
14348;SDS011;7258;50.376;8.742;2022-12-24T00:18:49;7.37;;;2.50;;
14348;SDS011;7258;50.376;8.742;2022-12-24T00:20:53;9.50;;;2.30;;
14348;SDS011;7258;50.376;8.742;2022-12-24T00:22:56;6.53;;;2.10;;
14348;SDS011;7258;50.376;8.742;2022-12-24T00:24:59;6.97;;;2.40;;
14348;SDS011;7258;50.376;8.742;2022-12-24T00:27:02;7.90;;;2.20;;
14348;SDS011;7258;50.376;8.742;2022-12-24T00:29:06;10.40;;;2.50;;
14348;SDS011;7258;50.376;8.742;2022-12-24T00:31:09;8.60;;;2.73;;
14348;SDS011;7258;50.376;8.742;2022-12-24T00:33:14;12.30;;;2.83;;
14348;SDS011;7258;50.376;8.742;2022-12-24T00:35:24;7.43;;;2.30;;
14348;SDS011;7258;50.376;8.742;2022-12-24T00:37:29;7.87;;;2.30;;
14348;SDS011;7258;50.376;8.742;2022-12-24T00:39:31;9.13;;;2.57;;
14348;SDS011;7258;50.376;8.742;2022-12-24T00:41:34;7.45;;;2.30;;
14348;SDS011;7258;50.376;8.742;2022-12-24T00:43:37;9.67;;;2.80;;
14348;SDS011;7258;50.376;8.742;2022-12-24T00:45:40;5.87;;;1.93;;
14348;SDS011;7258;50.376;8.742;2022-12-24T00:47:43;8.45;;;2.45;;
14348;SDS011;7258;50.376;8.742;2022-12-24T00:49:46;6.70;;;2.57;;
14348;SDS011;7258;50.376;8.742;2022-12-24T00:51:48;6.80;;;2.03;;
14348;SDS011;7258;50.376;8.742;2022-12-24T00:53:54;10.88;;;2.80;;
14348;SDS011;7258;50.376;8.742;2022-12-24T00:55:57;6.10;;;2.40;;
14348;SDS011;7258;50.376;8.742;2022-12-24T00:58:00;11.13;;;2.80;;
14348;SDS011;7258;50.376;8.742;2022-12-24T01:00:03;11.63;;;3.00;;
14348;SDS011;7258;50.376;8.742;2022-12-24T01:02:06;10.07;;;2.57;;
14348;SDS011;7258;50.376;8.742;2022-12-24T01:04:09;11.43;;;3.13;;
14348;SDS011;7258;50.376;8.742;2022-12-24T01:06:29;7.07;;;2.40;;
14348;SDS011;7258;50.376;8.742;2022-12-24T01:08:32;8.43;;;2.75;;
14348;SDS011;7258;50.376;8.742;2022-12-24T01:10:36;8.27;;;2.67;;
14348;SDS011;7258;50.376;8.742;2022-12-24T01:12:39;7.63;;;2.20;;
14348;SDS011;7258;50.376;8.742;2022-12-24T01:14:42;9.73;;;3.00;;
14348;SDS011;7258;50.376;8.742;2022-12-24T01:16:45;11.20;;;2.97;;
14348;SDS011;7258;50.376;8.742;2022-12-24T01:18:48;9.17;;;2.87;;
14348;SDS011;7258;50.376;8.742;2022-12-24T01:20:54;7.13;;;2.80;;
14348;SDS011;7258;50.376;8.742;2022-12-24T01:22:59;13.23;;;3.03;;
14348;SDS011;7258;50.376;8.742;2022-12-24T01:25:02;9.63;;;3.00;;
14348;SDS011;7258;50.376;8.742;2022-12-24T01:27:06;7.23;;;2.40;;
14348;SDS011;7258;50.376;8.742;2022-12-24T01:29:09;7.90;;;2.93;;
14348;SDS011;7258;50.376;8.742;2022-12-24T01:31:13;7.20;;;2.50;;
14348;SDS011;7258;50.376;8.742;2022-12-24T01:33:17;13.77;;;3.40;;
14348;SDS011;7258;50.376;8.742;2022-12-24T01:35:20;9.43;;;2.77;;
14348;SDS011;7258;50.376;8.742;2022-12-24T01:37:23;11.47;;;3.37;;
14348;SDS011;7258;50.376;8.742;2022-12-24T01:39:26;10.33;;;2.90;;
14348;SDS011;7258;50.376;8.742;2022-12-24T01:41:29;10.00;;;2.77;;
14348;SDS011;7258;50.376;8.742;2022-12-24T01:43:51;9.47;;;3.23;;
14348;SDS011;7258;50.376;8.742;2022-12-24T01:45:54;9.27;;;2.70;;
14348;SDS011;7258;50.376;8.742;2022-12-24T01:47:58;9.20;;;2.80;;
14348;SDS011;7258;50.376;8.742;2022-12-24T01:50:02;10.43;;;2.70;;
14348;SDS011;7258;50.376;8.742;2022-12-24T01:52:15;10.80;;;2.80;;
14348;SDS011;7258;50.376;8.742;2022-12-24T01:54:21;8.77;;;2.80;;
14348;SDS011;7258;50.376;8.742;2022-12-24T01:56:27;12.27;;;2.83;;
14348;SDS011;7258;50.376;8.742;2022-12-24T01:58:32;8.63;;;2.80;;
14348;SDS011;7258;50.376;8.742;2022-12-24T02:00:38;11.00;;;3.10;;
14348;SDS011;7258;50.376;8.742;2022-12-24T02:02:42;12.80;;;3.27;;
14348;SDS011;7258;50.376;8.742;2022-12-24T02:04:49;9.03;;;3.03;;
14348;SDS011;7258;50.376;8.742;2022-12-24T02:06:57;8.37;;;2.60;;
14348;SDS011;7258;50.376;8.742;2022-12-24T02:09:00;11.00;;;2.90;;
14348;SDS011;7258;50.376;8.742;2022-12-24T02:11:07;9.87;;;2.67;;
14348;SDS011;7258;50.376;8.742;2022-12-24T02:13:11;10.13;;;2.73;;
14348;SDS011;7258;50.376;8.742;2022-12-24T02:15:16;10.93;;;2.80;;
14348;SDS011;7258;50.376;8.742;2022-12-24T02:17:23;10.10;;;3.07;;
14348;SDS011;7258;50.376;8.742;2022-12-24T02:22:19;12.63;;;2.70;;
14348;SDS011;7258;50.376;8.742;2022-12-24T02:24:34;8.93;;;2.80;;
14348;SDS011;7258;50.376;8.742;2022-12-24T02:27:12;9.30;;;2.50;;
14348;SDS011;7258;50.376;8.742;2022-12-24T02:29:26;11.53;;;3.00;;
14348;SDS011;7258;50.376;8.742;2022-12-24T02:31:58;9.30;;;2.57;;
14348;SDS011;7258;50.376;8.742;2022-12-24T02:34:06;10.87;;;2.83;;
14348;SDS011;7258;50.376;8.742;2022-12-24T02:36:18;7.67;;;2.27;;
14348;SDS011;7258;50.376;8.742;2022-12-24T02:38:27;9.43;;;2.70;;
14348;SDS011;7258;50.376;8.742;2022-12-24T02:40:35;11.63;;;2.83;;
14348;SDS011;7258;50.376;8.742;2022-12-24T02:42:45;9.87;;;2.47;;
14348;SDS011;7258;50.376;8.742;2022-12-24T02:44:52;13.70;;;3.13;;
14348;SDS011;7258;50.376;8.742;2022-12-24T02:46:59;10.63;;;3.27;;
14348;SDS011;7258;50.376;8.742;2022-12-24T02:49:06;11.57;;;3.03;;
14348;SDS011;7258;50.376;8.742;2022-12-24T02:51:10;11.33;;;3.17;;
14348;SDS011;7258;50.376;8.742;2022-12-24T02:53:12;12.20;;;3.23;;
14348;SDS011;7258;50.376;8.742;2022-12-24T02:55:17;9.17;;;3.17;;
14348;SDS011;7258;50.376;8.742;2022-12-24T02:57:26;13.13;;;3.40;;
14348;SDS011;7258;50.376;8.742;2022-12-24T03:02:08;11.57;;;3.00;;
14348;SDS011;7258;50.376;8.742;2022-12-24T03:04:25;11.33;;;3.10;;
14348;SDS011;7258;50.376;8.742;2022-12-24T03:06:42;8.83;;;3.13;;
14348;SDS011;7258;50.376;8.742;2022-12-24T03:08:50;9.63;;;3.30;;
14348;SDS011;7258;50.376;8.742;2022-12-24T03:11:01;9.53;;;2.60;;
14348;SDS011;7258;50.376;8.742;2022-12-24T03:13:11;13.23;;;2.90;;
14348;SDS011;7258;50.376;8.742;2022-12-24T03:15:17;12.13;;;2.90;;
14348;SDS011;7258;50.376;8.742;2022-12-24T03:17:25;9.70;;;2.90;;
14348;SDS011;7258;50.376;8.742;2022-12-24T03:19:28;10.27;;;3.43;;
14348;SDS011;7258;50.376;8.742;2022-12-24T03:21:33;13.00;;;3.20;;
14348;SDS011;7258;50.376;8.742;2022-12-24T03:23:39;8.20;;;2.30;;
14348;SDS011;7258;50.376;8.742;2022-12-24T03:25:43;11.97;;;3.23;;
14348;SDS011;7258;50.376;8.742;2022-12-24T03:27:47;12.53;;;3.10;;
14348;SDS011;7258;50.376;8.742;2022-12-24T03:29:50;12.07;;;3.00;;
14348;SDS011;7258;50.376;8.742;2022-12-24T03:31:57;11.77;;;3.20;;
14348;SDS011;7258;50.376;8.742;2022-12-24T03:34:04;16.80;;;3.60;;
14348;SDS011;7258;50.376;8.742;2022-12-24T03:36:07;15.33;;;3.93;;
14348;SDS011;7258;50.376;8.742;2022-12-24T03:38:11;9.93;;;3.23;;
14348;SDS011;7258;50.376;8.742;2022-12-24T03:40:13;11.00;;;2.90;;
14348;SDS011;7258;50.376;8.742;2022-12-24T03:42:17;14.13;;;3.37;;
14348;SDS011;7258;50.376;8.742;2022-12-24T03:44:19;13.40;;;3.53;;
14348;SDS011;7258;50.376;8.742;2022-12-24T03:46:22;13.90;;;3.60;;
14348;SDS011;7258;50.376;8.742;2022-12-24T03:48:25;10.47;;;3.43;;
14348;SDS011;7258;50.376;8.742;2022-12-24T03:50:34;13.23;;;3.40;;
14348;SDS011;7258;50.376;8.742;2022-12-24T03:52:37;9.17;;;3.20;;
14348;SDS011;7258;50.376;8.742;2022-12-24T03:54:40;14.00;;;3.20;;
14348;SDS011;7258;50.376;8.742;2022-12-24T03:56:45;12.07;;;3.50;;
14348;SDS011;7258;50.376;8.742;2022-12-24T03:58:47;8.93;;;3.20;;
14348;SDS011;7258;50.376;8.742;2022-12-24T04:00:51;11.90;;;3.27;;
14348;SDS011;7258;50.376;8.742;2022-12-24T04:02:54;10.27;;;3.03;;
14348;SDS011;7258;50.376;8.742;2022-12-24T04:04:57;12.00;;;3.53;;
14348;SDS011;7258;50.376;8.742;2022-12-24T04:07:01;15.57;;;3.93;;
14348;SDS011;7258;50.376;8.742;2022-12-24T04:09:04;10.30;;;3.63;;
14348;SDS011;7258;50.376;8.742;2022-12-24T04:11:08;10.30;;;3.33;;
14348;SDS011;7258;50.376;8.742;2022-12-24T04:13:12;12.83;;;3.07;;
14348;SDS011;7258;50.376;8.742;2022-12-24T04:15:15;15.30;;;3.60;;
14348;SDS011;7258;50.376;8.742;2022-12-24T04:17:17;13.23;;;3.40;;
14348;SDS011;7258;50.376;8.742;2022-12-24T04:19:20;10.93;;;3.33;;
14348;SDS011;7258;50.376;8.742;2022-12-24T04:21:24;12.67;;;3.60;;
14348;SDS011;7258;50.376;8.742;2022-12-24T04:23:30;12.63;;;3.57;;
14348;SDS011;7258;50.376;8.742;2022-12-24T04:25:33;13.90;;;3.47;;
14348;SDS011;7258;50.376;8.742;2022-12-24T04:27:38;13.57;;;3.97;;
14348;SDS011;7258;50.376;8.742;2022-12-24T04:29:41;8.80;;;3.33;;
14348;SDS011;7258;50.376;8.742;2022-12-24T04:31:43;12.33;;;3.80;;
14348;SDS011;7258;50.376;8.742;2022-12-24T04:33:46;14.50;;;3.77;;
14348;SDS011;7258;50.376;8.742;2022-12-24T04:35:51;14.50;;;3.87;;
14348;SDS011;7258;50.376;8.742;2022-12-24T04:37:55;10.27;;;3.27;;
14348;SDS011;7258;50.376;8.742;2022-12-24T04:39:59;17.23;;;3.80;;
14348;SDS011;7258;50.376;8.742;2022-12-24T04:42:02;12.03;;;3.10;;
14348;SDS011;7258;50.376;8.742;2022-12-24T04:44:05;15.03;;;3.60;;
14348;SDS011;7258;50.376;8.742;2022-12-24T04:46:09;16.40;;;3.70;;
14348;SDS011;7258;50.376;8.742;2022-12-24T04:48:14;16.97;;;4.00;;
14348;SDS011;7258;50.376;8.742;2022-12-24T04:50:17;16.13;;;3.43;;
14348;SDS011;7258;50.376;8.742;2022-12-24T04:52:20;17.63;;;3.77;;
14348;SDS011;7258;50.376;8.742;2022-12-24T04:54:23;14.37;;;3.47;;
14348;SDS011;7258;50.376;8.742;2022-12-24T04:56:28;9.87;;;3.67;;
14348;SDS011;7258;50.376;8.742;2022-12-24T04:58:32;11.47;;;3.63;;
14348;SDS011;7258;50.376;8.742;2022-12-24T05:00:35;12.73;;;3.10;;
14348;SDS011;7258;50.376;8.742;2022-12-24T05:02:37;12.83;;;3.70;;
14348;SDS011;7258;50.376;8.742;2022-12-24T05:04:41;15.17;;;3.60;;
14348;SDS011;7258;50.376;8.742;2022-12-24T05:06:44;9.17;;;3.03;;
14348;SDS011;7258;50.376;8.742;2022-12-24T05:08:47;10.83;;;3.60;;
14348;SDS011;7258;50.376;8.742;2022-12-24T05:10:53;12.77;;;3.93;;
14348;SDS011;7258;50.376;8.742;2022-12-24T05:12:58;14.70;;;3.43;;
14348;SDS011;7258;50.376;8.742;2022-12-24T05:15:01;12.83;;;3.23;;
14348;SDS011;7258;50.376;8.742;2022-12-24T05:17:04;9.83;;;3.00;;
14348;SDS011;7258;50.376;8.742;2022-12-24T05:19:07;12.53;;;3.23;;
14348;SDS011;7258;50.376;8.742;2022-12-24T05:21:10;13.63;;;3.43;;
14348;SDS011;7258;50.376;8.742;2022-12-24T05:23:16;13.43;;;3.37;;
14348;SDS011;7258;50.376;8.742;2022-12-24T05:25:38;12.30;;;3.10;;
14348;SDS011;7258;50.376;8.742;2022-12-24T05:28:00;9.87;;;3.20;;
14348;SDS011;7258;50.376;8.742;2022-12-24T05:30:03;10.00;;;3.23;;
14348;SDS011;7258;50.376;8.742;2022-12-24T05:32:07;13.20;;;3.53;;
14348;SDS011;7258;50.376;8.742;2022-12-24T05:34:10;13.90;;;3.87;;
14348;SDS011;7258;50.376;8.742;2022-12-24T05:36:13;12.83;;;3.37;;
14348;SDS011;7258;50.376;8.742;2022-12-24T05:38:16;8.13;;;3.10;;
14348;SDS011;7258;50.376;8.742;2022-12-24T05:40:19;14.80;;;3.27;;
14348;SDS011;7258;50.376;8.742;2022-12-24T05:42:22;9.50;;;3.07;;
14348;SDS011;7258;50.376;8.742;2022-12-24T05:44:26;13.93;;;3.20;;
14348;SDS011;7258;50.376;8.742;2022-12-24T05:46:29;8.27;;;2.93;;
14348;SDS011;7258;50.376;8.742;2022-12-24T05:48:32;13.53;;;3.00;;
14348;SDS011;7258;50.376;8.742;2022-12-24T05:50:35;9.20;;;3.00;;
14348;SDS011;7258;50.376;8.742;2022-12-24T05:52:40;11.50;;;3.20;;
14348;SDS011;7258;50.376;8.742;2022-12-24T05:54:43;10.60;;;3.17;;
14348;SDS011;7258;50.376;8.742;2022-12-24T05:56:46;7.67;;;2.80;;
14348;SDS011;7258;50.376;8.742;2022-12-24T05:58:49;14.13;;;3.77;;
14348;SDS011;7258;50.376;8.742;2022-12-24T06:00:54;14.00;;;3.90;;
14348;SDS011;7258;50.376;8.742;2022-12-24T06:02:57;13.90;;;3.87;;
14348;SDS011;7258;50.376;8.742;2022-12-24T06:05:00;11.27;;;2.87;;
14348;SDS011;7258;50.376;8.742;2022-12-24T06:07:03;11.50;;;2.73;;
14348;SDS011;7258;50.376;8.742;2022-12-24T06:09:06;9.83;;;3.10;;
14348;SDS011;7258;50.376;8.742;2022-12-24T06:11:10;10.10;;;3.23;;
14348;SDS011;7258;50.376;8.742;2022-12-24T06:13:14;12.00;;;3.23;;
14348;SDS011;7258;50.376;8.742;2022-12-24T06:15:17;9.80;;;3.00;;
14348;SDS011;7258;50.376;8.742;2022-12-24T06:17:25;11.03;;;3.23;;
14348;SDS011;7258;50.376;8.742;2022-12-24T06:19:28;10.73;;;3.00;;
14348;SDS011;7258;50.376;8.742;2022-12-24T06:21:31;13.20;;;3.20;;
14348;SDS011;7258;50.376;8.742;2022-12-24T06:23:35;14.03;;;3.20;;
14348;SDS011;7258;50.376;8.742;2022-12-24T06:25:39;17.90;;;3.70;;
14348;SDS011;7258;50.376;8.742;2022-12-24T06:27:41;10.83;;;3.37;;
14348;SDS011;7258;50.376;8.742;2022-12-24T06:29:44;13.43;;;4.00;;
14348;SDS011;7258;50.376;8.742;2022-12-24T06:31:47;16.03;;;3.93;;
14348;SDS011;7258;50.376;8.742;2022-12-24T06:33:51;15.97;;;3.80;;
14348;SDS011;7258;50.376;8.742;2022-12-24T06:35:54;8.53;;;3.27;;
14348;SDS011;7258;50.376;8.742;2022-12-24T06:37:57;11.30;;;3.50;;
14348;SDS011;7258;50.376;8.742;2022-12-24T06:40:00;16.27;;;4.30;;
14348;SDS011;7258;50.376;8.742;2022-12-24T06:42:03;12.27;;;3.83;;
14348;SDS011;7258;50.376;8.742;2022-12-24T06:44:07;11.33;;;3.43;;
14348;SDS011;7258;50.376;8.742;2022-12-24T06:46:10;11.53;;;3.53;;
14348;SDS011;7258;50.376;8.742;2022-12-24T06:48:13;12.83;;;3.70;;
14348;SDS011;7258;50.376;8.742;2022-12-24T06:50:18;11.03;;;3.40;;
14348;SDS011;7258;50.376;8.742;2022-12-24T06:52:21;16.47;;;3.93;;
14348;SDS011;7258;50.376;8.742;2022-12-24T06:54:24;17.63;;;3.87;;
14348;SDS011;7258;50.376;8.742;2022-12-24T06:56:27;13.50;;;3.40;;
14348;SDS011;7258;50.376;8.742;2022-12-24T06:58:30;13.83;;;4.20;;
14348;SDS011;7258;50.376;8.742;2022-12-24T07:00:33;16.33;;;3.67;;
14348;SDS011;7258;50.376;8.742;2022-12-24T07:02:38;14.67;;;3.50;;
14348;SDS011;7258;50.376;8.742;2022-12-24T07:04:41;11.20;;;3.43;;
14348;SDS011;7258;50.376;8.742;2022-12-24T07:06:45;10.57;;;3.23;;
14348;SDS011;7258;50.376;8.742;2022-12-24T07:08:48;13.37;;;3.57;;
14348;SDS011;7258;50.376;8.742;2022-12-24T07:10:51;12.93;;;3.47;;
14348;SDS011;7258;50.376;8.742;2022-12-24T07:12:55;8.60;;;3.13;;
14348;SDS011;7258;50.376;8.742;2022-12-24T07:14:57;10.13;;;2.97;;
14348;SDS011;7258;50.376;8.742;2022-12-24T07:17:00;8.30;;;3.20;;
14348;SDS011;7258;50.376;8.742;2022-12-24T07:19:03;13.17;;;3.70;;
14348;SDS011;7258;50.376;8.742;2022-12-24T07:21:06;14.03;;;3.90;;
14348;SDS011;7258;50.376;8.742;2022-12-24T07:23:10;14.63;;;3.70;;
14348;SDS011;7258;50.376;8.742;2022-12-24T07:25:13;11.67;;;3.03;;
14348;SDS011;7258;50.376;8.742;2022-12-24T07:27:16;8.83;;;3.00;;
14348;SDS011;7258;50.376;8.742;2022-12-24T07:29:19;10.23;;;2.80;;
14348;SDS011;7258;50.376;8.742;2022-12-24T07:31:21;13.27;;;3.43;;
14348;SDS011;7258;50.376;8.742;2022-12-24T07:33:25;12.70;;;3.50;;
14348;SDS011;7258;50.376;8.742;2022-12-24T07:35:28;10.20;;;3.93;;
14348;SDS011;7258;50.376;8.742;2022-12-24T07:37:31;12.03;;;4.90;;
14348;SDS011;7258;50.376;8.742;2022-12-24T07:39:35;10.87;;;3.57;;
14348;SDS011;7258;50.376;8.742;2022-12-24T07:41:41;13.87;;;3.30;;
14348;SDS011;7258;50.376;8.742;2022-12-24T07:43:44;8.20;;;2.73;;
14348;SDS011;7258;50.376;8.742;2022-12-24T07:45:47;8.93;;;2.80;;
14348;SDS011;7258;50.376;8.742;2022-12-24T07:47:50;7.77;;;2.27;;
14348;SDS011;7258;50.376;8.742;2022-12-24T07:49:53;10.03;;;2.50;;
14348;SDS011;7258;50.376;8.742;2022-12-24T07:51:56;6.83;;;2.30;;
14348;SDS011;7258;50.376;8.742;2022-12-24T07:53:59;8.27;;;2.50;;
14348;SDS011;7258;50.376;8.742;2022-12-24T07:56:03;9.23;;;2.43;;
14348;SDS011;7258;50.376;8.742;2022-12-24T07:58:13;12.23;;;2.67;;
14348;SDS011;7258;50.376;8.742;2022-12-24T08:00:16;10.30;;;3.00;;
14348;SDS011;7258;50.376;8.742;2022-12-24T08:02:19;9.97;;;2.80;;
14348;SDS011;7258;50.376;8.742;2022-12-24T08:04:22;10.27;;;3.13;;
14348;SDS011;7258;50.376;8.742;2022-12-24T08:06:25;12.20;;;3.57;;
14348;SDS011;7258;50.376;8.742;2022-12-24T08:08:28;11.40;;;3.40;;
14348;SDS011;7258;50.376;8.742;2022-12-24T08:10:30;11.40;;;3.37;;
14348;SDS011;7258;50.376;8.742;2022-12-24T08:12:34;11.73;;;3.20;;
14348;SDS011;7258;50.376;8.742;2022-12-24T08:14:37;14.33;;;3.53;;
14348;SDS011;7258;50.376;8.742;2022-12-24T08:16:40;10.47;;;3.07;;
14348;SDS011;7258;50.376;8.742;2022-12-24T08:18:43;13.50;;;3.27;;
14348;SDS011;7258;50.376;8.742;2022-12-24T08:20:46;14.10;;;3.43;;
14348;SDS011;7258;50.376;8.742;2022-12-24T08:22:49;15.40;;;3.47;;
14348;SDS011;7258;50.376;8.742;2022-12-24T08:24:52;16.73;;;3.53;;
14348;SDS011;7258;50.376;8.742;2022-12-24T08:26:55;12.87;;;3.53;;
14348;SDS011;7258;50.376;8.742;2022-12-24T08:29:00;16.07;;;3.80;;
14348;SDS011;7258;50.376;8.742;2022-12-24T08:31:03;11.30;;;3.63;;
14348;SDS011;7258;50.376;8.742;2022-12-24T08:33:07;16.00;;;3.97;;
14348;SDS011;7258;50.376;8.742;2022-12-24T08:35:10;14.37;;;3.47;;
14348;SDS011;7258;50.376;8.742;2022-12-24T08:37:13;13.13;;;4.20;;
14348;SDS011;7258;50.376;8.742;2022-12-24T08:39:15;13.00;;;3.80;;
14348;SDS011;7258;50.376;8.742;2022-12-24T08:41:18;12.97;;;4.00;;
14348;SDS011;7258;50.376;8.742;2022-12-24T08:43:21;16.17;;;3.87;;
14348;SDS011;7258;50.376;8.742;2022-12-24T08:45:27;15.77;;;3.83;;
14348;SDS011;7258;50.376;8.742;2022-12-24T08:47:38;15.00;;;3.90;;
14348;SDS011;7258;50.376;8.742;2022-12-24T08:49:41;14.17;;;3.70;;
14348;SDS011;7258;50.376;8.742;2022-12-24T08:51:44;16.33;;;4.07;;
14348;SDS011;7258;50.376;8.742;2022-12-24T08:53:47;9.00;;;3.10;;
14348;SDS011;7258;50.376;8.742;2022-12-24T08:55:50;12.83;;;3.40;;
14348;SDS011;7258;50.376;8.742;2022-12-24T08:57:56;14.53;;;4.00;;
14348;SDS011;7258;50.376;8.742;2022-12-24T08:59:59;16.93;;;3.90;;
14348;SDS011;7258;50.376;8.742;2022-12-24T09:02:03;14.40;;;3.77;;
14348;SDS011;7258;50.376;8.742;2022-12-24T09:04:07;13.70;;;3.53;;
14348;SDS011;7258;50.376;8.742;2022-12-24T09:06:10;12.47;;;3.50;;
14348;SDS011;7258;50.376;8.742;2022-12-24T09:08:14;19.03;;;4.10;;
14348;SDS011;7258;50.376;8.742;2022-12-24T09:10:17;12.67;;;3.63;;
14348;SDS011;7258;50.376;8.742;2022-12-24T09:12:20;15.37;;;3.97;;
14348;SDS011;7258;50.376;8.742;2022-12-24T09:14:23;15.53;;;3.70;;
14348;SDS011;7258;50.376;8.742;2022-12-24T09:16:26;10.50;;;3.17;;
14348;SDS011;7258;50.376;8.742;2022-12-24T09:18:30;11.53;;;3.37;;
14348;SDS011;7258;50.376;8.742;2022-12-24T09:20:33;16.17;;;4.37;;
14348;SDS011;7258;50.376;8.742;2022-12-24T09:22:37;15.53;;;3.70;;
14348;SDS011;7258;50.376;8.742;2022-12-24T09:24:42;14.87;;;4.23;;
14348;SDS011;7258;50.376;8.742;2022-12-24T09:26:45;13.70;;;3.90;;
14348;SDS011;7258;50.376;8.742;2022-12-24T09:28:58;15.47;;;4.53;;
14348;SDS011;7258;50.376;8.742;2022-12-24T09:31:02;13.57;;;4.00;;
14348;SDS011;7258;50.376;8.742;2022-12-24T09:33:05;16.03;;;4.53;;
14348;SDS011;7258;50.376;8.742;2022-12-24T09:35:09;13.43;;;3.73;;
14348;SDS011;7258;50.376;8.742;2022-12-24T09:37:12;16.60;;;4.15;;
14348;SDS011;7258;50.376;8.742;2022-12-24T09:39:15;12.82;;;3.67;;
14348;SDS011;7258;50.376;8.742;2022-12-24T09:41:23;15.35;;;4.38;;
14348;SDS011;7258;50.376;8.742;2022-12-24T09:43:34;14.48;;;4.13;;
14348;SDS011;7258;50.376;8.742;2022-12-24T09:45:39;15.80;;;4.47;;
14348;SDS011;7258;50.376;8.742;2022-12-24T09:47:45;13.88;;;4.00;;
14348;SDS011;7258;50.376;8.742;2022-12-24T09:49:52;14.85;;;4.15;;
14348;SDS011;7258;50.376;8.742;2022-12-24T09:52:00;9.57;;;3.58;;
14348;SDS011;7258;50.376;8.742;2022-12-24T09:54:07;13.13;;;3.97;;
14348;SDS011;7258;50.376;8.742;2022-12-24T09:56:16;16.23;;;5.10;;
14348;SDS011;7258;50.376;8.742;2022-12-24T09:58:22;16.95;;;4.90;;
14348;SDS011;7258;50.376;8.742;2022-12-24T10:00:29;13.13;;;4.20;;
14348;SDS011;7258;50.376;8.742;2022-12-24T10:02:36;13.75;;;4.50;;
14348;SDS011;7258;50.376;8.742;2022-12-24T10:04:39;16.90;;;4.32;;
14348;SDS011;7258;50.376;8.742;2022-12-24T10:06:46;11.55;;;3.72;;
14348;SDS011;7258;50.376;8.742;2022-12-24T10:08:58;9.77;;;3.75;;
14348;SDS011;7258;50.376;8.742;2022-12-24T10:11:13;9.93;;;3.47;;
14348;SDS011;7258;50.376;8.742;2022-12-24T10:13:24;11.93;;;3.92;;
14348;SDS011;7258;50.376;8.742;2022-12-24T10:15:42;8.18;;;3.15;;
14348;SDS011;7258;50.376;8.742;2022-12-24T10:17:54;7.90;;;2.90;;
14348;SDS011;7258;50.376;8.742;2022-12-24T10:20:21;10.05;;;3.63;;
14348;SDS011;7258;50.376;8.742;2022-12-24T10:22:37;11.32;;;2.90;;
14348;SDS011;7258;50.376;8.742;2022-12-24T10:24:52;9.73;;;3.42;;
14348;SDS011;7258;50.376;8.742;2022-12-24T10:27:04;10.60;;;3.33;;
14348;SDS011;7258;50.376;8.742;2022-12-24T10:29:15;10.70;;;3.00;;
14348;SDS011;7258;50.376;8.742;2022-12-24T10:31:22;8.40;;;2.63;;
14348;SDS011;7258;50.376;8.742;2022-12-24T10:33:28;10.25;;;3.15;;
14348;SDS011;7258;50.376;8.742;2022-12-24T10:35:35;10.68;;;3.38;;
14348;SDS011;7258;50.376;8.742;2022-12-24T10:37:46;10.00;;;3.00;;
14348;SDS011;7258;50.376;8.742;2022-12-24T10:39:52;7.55;;;2.78;;
14348;SDS011;7258;50.376;8.742;2022-12-24T10:41:56;10.77;;;3.03;;
14348;SDS011;7258;50.376;8.742;2022-12-24T10:44:01;9.50;;;3.17;;
14348;SDS011;7258;50.376;8.742;2022-12-24T10:46:07;9.35;;;2.70;;
14348;SDS011;7258;50.376;8.742;2022-12-24T10:48:20;7.32;;;2.40;;
14348;SDS011;7258;50.376;8.742;2022-12-24T10:50:27;10.38;;;3.20;;
14348;SDS011;7258;50.376;8.742;2022-12-24T10:52:34;8.65;;;3.03;;
14348;SDS011;7258;50.376;8.742;2022-12-24T10:57:21;12.75;;;2.92;;
14348;SDS011;7258;50.376;8.742;2022-12-24T10:59:27;9.43;;;2.50;;
14348;SDS011;7258;50.376;8.742;2022-12-24T11:01:42;7.97;;;2.83;;
14348;SDS011;7258;50.376;8.742;2022-12-24T11:03:58;10.07;;;2.70;;
14348;SDS011;7258;50.376;8.742;2022-12-24T11:06:06;9.63;;;3.15;;
14348;SDS011;7258;50.376;8.742;2022-12-24T11:08:13;10.70;;;3.42;;
14348;SDS011;7258;50.376;8.742;2022-12-24T11:10:22;8.43;;;2.65;;
14348;SDS011;7258;50.376;8.742;2022-12-24T11:12:26;13.40;;;3.28;;
14348;SDS011;7258;50.376;8.742;2022-12-24T11:14:32;9.07;;;2.90;;
14348;SDS011;7258;50.376;8.742;2022-12-24T11:16:38;8.45;;;2.83;;
14348;SDS011;7258;50.376;8.742;2022-12-24T11:18:43;7.15;;;2.70;;
14348;SDS011;7258;50.376;8.742;2022-12-24T11:20:52;9.02;;;3.17;;
14348;SDS011;7258;50.376;8.742;2022-12-24T11:22:55;8.77;;;3.08;;
14348;SDS011;7258;50.376;8.742;2022-12-24T11:25:04;6.72;;;2.70;;
14348;SDS011;7258;50.376;8.742;2022-12-24T11:27:23;9.60;;;3.00;;
14348;SDS011;7258;50.376;8.742;2022-12-24T11:29:31;10.52;;;2.78;;
14348;SDS011;7258;50.376;8.742;2022-12-24T11:31:34;8.38;;;2.75;;
14348;SDS011;7258;50.376;8.742;2022-12-24T11:33:44;7.18;;;2.95;;
14348;SDS011;7258;50.376;8.742;2022-12-24T11:35:50;12.00;;;3.55;;
14348;SDS011;7258;50.376;8.742;2022-12-24T11:38:08;14.07;;;3.72;;
14348;SDS011;7258;50.376;8.742;2022-12-24T11:40:18;9.82;;;3.38;;
14348;SDS011;7258;50.376;8.742;2022-12-24T11:42:26;7.00;;;2.80;;
14348;SDS011;7258;50.376;8.742;2022-12-24T11:44:32;9.60;;;3.10;;
14348;SDS011;7258;50.376;8.742;2022-12-24T11:46:36;10.13;;;3.30;;
14348;SDS011;7258;50.376;8.742;2022-12-24T11:48:40;8.07;;;3.03;;
14348;SDS011;7258;50.376;8.742;2022-12-24T11:50:43;10.48;;;2.90;;
14348;SDS011;7258;50.376;8.742;2022-12-24T11:52:59;9.70;;;3.15;;
14348;SDS011;7258;50.376;8.742;2022-12-24T11:55:12;11.32;;;3.17;;
14348;SDS011;7258;50.376;8.742;2022-12-24T11:57:20;12.10;;;3.25;;
14348;SDS011;7258;50.376;8.742;2022-12-24T11:59:29;8.50;;;2.85;;
14348;SDS011;7258;50.376;8.742;2022-12-24T12:01:36;10.85;;;3.10;;
14348;SDS011;7258;50.376;8.742;2022-12-24T12:03:44;7.20;;;3.00;;
14348;SDS011;7258;50.376;8.742;2022-12-24T12:05:50;10.75;;;2.80;;
14348;SDS011;7258;50.376;8.742;2022-12-24T12:07:56;7.30;;;2.60;;
14348;SDS011;7258;50.376;8.742;2022-12-24T12:10:10;13.88;;;3.42;;
14348;SDS011;7258;50.376;8.742;2022-12-24T12:12:21;9.85;;;3.90;;
14348;SDS011;7258;50.376;8.742;2022-12-24T12:14:30;11.20;;;3.67;;
14348;SDS011;7258;50.376;8.742;2022-12-24T12:16:39;10.80;;;3.20;;
14348;SDS011;7258;50.376;8.742;2022-12-24T12:19:04;9.98;;;3.10;;
14348;SDS011;7258;50.376;8.742;2022-12-24T12:21:16;9.20;;;3.00;;
14348;SDS011;7258;50.376;8.742;2022-12-24T12:23:22;10.55;;;3.17;;
14348;SDS011;7258;50.376;8.742;2022-12-24T12:25:29;8.52;;;2.88;;
14348;SDS011;7258;50.376;8.742;2022-12-24T12:27:38;11.23;;;2.85;;
14348;SDS011;7258;50.376;8.742;2022-12-24T12:29:48;11.55;;;3.00;;
14348;SDS011;7258;50.376;8.742;2022-12-24T12:31:54;8.10;;;2.90;;
14348;SDS011;7258;50.376;8.742;2022-12-24T12:34:02;7.13;;;2.55;;
14348;SDS011;7258;50.376;8.742;2022-12-24T12:36:09;10.82;;;2.75;;
14348;SDS011;7258;50.376;8.742;2022-12-24T12:38:19;8.68;;;2.95;;
14348;SDS011;7258;50.376;8.742;2022-12-24T12:40:27;11.35;;;3.78;;
14348;SDS011;7258;50.376;8.742;2022-12-24T12:42:38;10.35;;;3.72;;
14348;SDS011;7258;50.376;8.742;2022-12-24T12:44:47;12.27;;;4.05;;
14348;SDS011;7258;50.376;8.742;2022-12-24T12:47:07;13.50;;;4.05;;
14348;SDS011;7258;50.376;8.742;2022-12-24T12:49:23;11.07;;;3.88;;